sensor_id;sensor_type;location;lat;lon;timestamp;P1;durP1;ratioP1;P2;durP2;ratioP2
47715;SDS011;33476;50.984;3.538;2023-10-19T00:01:57;2.53;;;0.20;;
47715;SDS011;33476;50.984;3.538;2023-10-19T00:04:24;1.10;;;0.03;;
47715;SDS011;33476;50.984;3.538;2023-10-19T00:06:57;3.80;;;0.40;;
47715;SDS011;33476;50.984;3.538;2023-10-19T00:09:23;1.30;;;0.20;;
47715;SDS011;33476;50.984;3.538;2023-10-19T00:11:50;0.35;;;0.10;;
47715;SDS011;33476;50.984;3.538;2023-10-19T00:14:17;2.30;;;0.10;;
47715;SDS011;33476;50.984;3.538;2023-10-19T00:16:46;4.15;;;0.10;;
47715;SDS011;33476;50.984;3.538;2023-10-19T00:19:30;1.60;;;0.10;;
47715;SDS011;33476;50.984;3.538;2023-10-19T00:22:02;1.10;;;0.10;;
47715;SDS011;33476;50.984;3.538;2023-10-19T00:26:58;1.77;;;0.10;;
47715;SDS011;33476;50.984;3.538;2023-10-19T00:29:30;1.35;;;0.15;;
47715;SDS011;33476;50.984;3.538;2023-10-19T00:31:57;2.65;;;0.10;;
47715;SDS011;33476;50.984;3.538;2023-10-19T00:34:24;4.93;;;0.30;;
47715;SDS011;33476;50.984;3.538;2023-10-19T00:36:50;1.10;;;0.10;;
47715;SDS011;33476;50.984;3.538;2023-10-19T00:39:16;1.55;;;0.10;;
47715;SDS011;33476;50.984;3.538;2023-10-19T00:41:52;4.57;;;0.20;;
47715;SDS011;33476;50.984;3.538;2023-10-19T00:44:23;2.60;;;0.20;;
47715;SDS011;33476;50.984;3.538;2023-10-19T00:47:03;5.03;;;0.28;;
47715;SDS011;33476;50.984;3.538;2023-10-19T00:49:29;1.92;;;0.10;;
47715;SDS011;33476;50.984;3.538;2023-10-19T00:51:56;1.13;;;0.10;;
47715;SDS011;33476;50.984;3.538;2023-10-19T00:54:32;5.07;;;0.20;;
47715;SDS011;33476;50.984;3.538;2023-10-19T00:57:01;2.85;;;0.38;;
47715;SDS011;33476;50.984;3.538;2023-10-19T00:59:36;3.67;;;0.10;;
47715;SDS011;33476;50.984;3.538;2023-10-19T01:02:12;2.10;;;0.13;;
47715;SDS011;33476;50.984;3.538;2023-10-19T01:04:54;2.42;;;0.10;;
47715;SDS011;33476;50.984;3.538;2023-10-19T01:07:24;5.32;;;0.13;;
47715;SDS011;33476;50.984;3.538;2023-10-19T01:09:51;1.50;;;0.20;;
47715;SDS011;33476;50.984;3.538;2023-10-19T01:12:21;3.63;;;0.20;;
47715;SDS011;33476;50.984;3.538;2023-10-19T01:17:33;2.25;;;0.10;;
47715;SDS011;33476;50.984;3.538;2023-10-19T01:20:04;4.72;;;0.30;;
47715;SDS011;33476;50.984;3.538;2023-10-19T01:25:41;1.30;;;0.30;;
47715;SDS011;33476;50.984;3.538;2023-10-19T01:28:19;2.17;;;0.20;;
47715;SDS011;33476;50.984;3.538;2023-10-19T01:30:47;2.78;;;0.10;;
47715;SDS011;33476;50.984;3.538;2023-10-19T01:33:16;1.92;;;0.13;;
47715;SDS011;33476;50.984;3.538;2023-10-19T01:35:45;0.70;;;0.20;;
47715;SDS011;33476;50.984;3.538;2023-10-19T01:38:29;4.28;;;0.20;;
47715;SDS011;33476;50.984;3.538;2023-10-19T01:41:02;3.40;;;0.30;;
47715;SDS011;33476;50.984;3.538;2023-10-19T01:43:32;2.05;;;0.10;;
47715;SDS011;33476;50.984;3.538;2023-10-19T01:45:58;3.67;;;0.10;;
47715;SDS011;33476;50.984;3.538;2023-10-19T01:48:29;4.70;;;0.32;;
47715;SDS011;33476;50.984;3.538;2023-10-19T01:51:04;2.25;;;0.38;;
47715;SDS011;33476;50.984;3.538;2023-10-19T01:53:33;2.60;;;0.10;;
47715;SDS011;33476;50.984;3.538;2023-10-19T01:56:08;1.85;;;0.13;;
47715;SDS011;33476;50.984;3.538;2023-10-19T01:58:37;3.45;;;0.10;;
47715;SDS011;33476;50.984;3.538;2023-10-19T02:01:04;1.75;;;0.15;;
47715;SDS011;33476;50.984;3.538;2023-10-19T02:03:44;3.08;;;0.17;;
47715;SDS011;33476;50.984;3.538;2023-10-19T02:06:10;3.45;;;0.17;;
47715;SDS011;33476;50.984;3.538;2023-10-19T02:08:57;4.15;;;0.20;;
47715;SDS011;33476;50.984;3.538;2023-10-19T02:11:26;1.60;;;0.10;;
47715;SDS011;33476;50.984;3.538;2023-10-19T02:13:53;1.85;;;0.20;;
47715;SDS011;33476;50.984;3.538;2023-10-19T02:16:21;2.33;;;0.10;;
47715;SDS011;33476;50.984;3.538;2023-10-19T02:18:47;3.47;;;0.30;;
47715;SDS011;33476;50.984;3.538;2023-10-19T02:21:14;2.70;;;0.10;;
47715;SDS011;33476;50.984;3.538;2023-10-19T02:23:44;2.40;;;0.10;;
47715;SDS011;33476;50.984;3.538;2023-10-19T02:26:09;4.65;;;0.20;;
47715;SDS011;33476;50.984;3.538;2023-10-19T02:28:38;3.08;;;0.10;;
47715;SDS011;33476;50.984;3.538;2023-10-19T02:31:04;3.22;;;0.30;;
47715;SDS011;33476;50.984;3.538;2023-10-19T02:33:40;2.88;;;0.10;;
47715;SDS011;33476;50.984;3.538;2023-10-19T02:36:06;2.22;;;0.28;;
47715;SDS011;33476;50.984;3.538;2023-10-19T02:38:38;1.55;;;0.10;;
47715;SDS011;33476;50.984;3.538;2023-10-19T02:41:04;3.40;;;0.25;;
47715;SDS011;33476;50.984;3.538;2023-10-19T02:43:30;2.47;;;0.10;;
47715;SDS011;33476;50.984;3.538;2023-10-19T02:45:58;3.55;;;0.20;;
47715;SDS011;33476;50.984;3.538;2023-10-19T02:48:24;1.98;;;0.10;;
47715;SDS011;33476;50.984;3.538;2023-10-19T02:50:50;2.92;;;0.20;;
47715;SDS011;33476;50.984;3.538;2023-10-19T02:53:15;3.60;;;0.20;;
47715;SDS011;33476;50.984;3.538;2023-10-19T02:55:43;1.95;;;0.20;;
47715;SDS011;33476;50.984;3.538;2023-10-19T02:58:09;5.07;;;0.30;;
47715;SDS011;33476;50.984;3.538;2023-10-19T03:00:36;4.50;;;0.30;;
47715;SDS011;33476;50.984;3.538;2023-10-19T03:03:02;4.07;;;0.43;;
47715;SDS011;33476;50.984;3.538;2023-10-19T03:05:30;2.03;;;0.13;;
47715;SDS011;33476;50.984;3.538;2023-10-19T03:07:56;3.63;;;0.30;;
47715;SDS011;33476;50.984;3.538;2023-10-19T03:10:21;3.58;;;0.25;;
47715;SDS011;33476;50.984;3.538;2023-10-19T03:12:59;4.70;;;0.30;;
47715;SDS011;33476;50.984;3.538;2023-10-19T03:15:25;1.13;;;0.25;;
47715;SDS011;33476;50.984;3.538;2023-10-19T03:17:52;4.22;;;0.40;;
47715;SDS011;33476;50.984;3.538;2023-10-19T03:20:17;3.83;;;0.50;;
47715;SDS011;33476;50.984;3.538;2023-10-19T03:22:48;2.88;;;0.20;;
47715;SDS011;33476;50.984;3.538;2023-10-19T03:25:13;4.97;;;0.60;;
47715;SDS011;33476;50.984;3.538;2023-10-19T03:27:57;6.43;;;0.17;;
47715;SDS011;33476;50.984;3.538;2023-10-19T03:30:30;8.43;;;0.40;;
47715;SDS011;33476;50.984;3.538;2023-10-19T03:32:56;5.78;;;0.30;;
47715;SDS011;33476;50.984;3.538;2023-10-19T03:35:24;4.47;;;0.28;;
47715;SDS011;33476;50.984;3.538;2023-10-19T03:37:49;5.25;;;0.30;;
47715;SDS011;33476;50.984;3.538;2023-10-19T03:40:16;6.20;;;0.20;;
47715;SDS011;33476;50.984;3.538;2023-10-19T03:42:50;5.07;;;0.28;;
47715;SDS011;33476;50.984;3.538;2023-10-19T03:45:19;5.18;;;0.13;;
47715;SDS011;33476;50.984;3.538;2023-10-19T03:47:48;5.63;;;0.40;;
47715;SDS011;33476;50.984;3.538;2023-10-19T03:50:15;3.03;;;0.22;;
47715;SDS011;33476;50.984;3.538;2023-10-19T03:52:45;1.90;;;0.13;;
47715;SDS011;33476;50.984;3.538;2023-10-19T03:55:10;4.38;;;0.25;;
47715;SDS011;33476;50.984;3.538;2023-10-19T03:57:37;4.68;;;0.28;;
47715;SDS011;33476;50.984;3.538;2023-10-19T04:00:07;5.22;;;0.40;;
47715;SDS011;33476;50.984;3.538;2023-10-19T04:02:41;3.85;;;0.30;;
47715;SDS011;33476;50.984;3.538;2023-10-19T04:05:07;3.35;;;0.25;;
47715;SDS011;33476;50.984;3.538;2023-10-19T04:07:40;4.57;;;0.47;;
47715;SDS011;33476;50.984;3.538;2023-10-19T04:10:06;2.92;;;0.15;;
47715;SDS011;33476;50.984;3.538;2023-10-19T04:12:33;4.32;;;0.30;;
47715;SDS011;33476;50.984;3.538;2023-10-19T04:15:07;3.03;;;0.60;;
47715;SDS011;33476;50.984;3.538;2023-10-19T04:17:36;3.42;;;0.45;;
47715;SDS011;33476;50.984;3.538;2023-10-19T04:20:03;4.65;;;0.20;;
47715;SDS011;33476;50.984;3.538;2023-10-19T04:25:10;4.95;;;0.30;;
47715;SDS011;33476;50.984;3.538;2023-10-19T04:27:41;6.43;;;0.30;;
47715;SDS011;33476;50.984;3.538;2023-10-19T04:30:08;5.60;;;0.38;;
47715;SDS011;33476;50.984;3.538;2023-10-19T04:32:43;5.20;;;0.50;;
47715;SDS011;33476;50.984;3.538;2023-10-19T04:35:10;5.90;;;0.60;;
47715;SDS011;33476;50.984;3.538;2023-10-19T04:37:38;2.40;;;0.20;;
47715;SDS011;33476;50.984;3.538;2023-10-19T04:40:07;5.80;;;0.25;;
47715;SDS011;33476;50.984;3.538;2023-10-19T04:42:33;4.13;;;0.20;;
47715;SDS011;33476;50.984;3.538;2023-10-19T04:44:59;7.07;;;0.50;;
47715;SDS011;33476;50.984;3.538;2023-10-19T04:47:24;7.38;;;0.43;;
47715;SDS011;33476;50.984;3.538;2023-10-19T04:49:49;4.55;;;0.45;;
47715;SDS011;33476;50.984;3.538;2023-10-19T04:52:15;3.55;;;0.30;;
47715;SDS011;33476;50.984;3.538;2023-10-19T04:54:40;9.15;;;0.55;;
47715;SDS011;33476;50.984;3.538;2023-10-19T04:57:07;1.90;;;0.20;;
47715;SDS011;33476;50.984;3.538;2023-10-19T04:59:32;5.43;;;0.60;;
47715;SDS011;33476;50.984;3.538;2023-10-19T05:01:58;6.68;;;0.43;;
47715;SDS011;33476;50.984;3.538;2023-10-19T05:04:26;7.45;;;0.43;;
47715;SDS011;33476;50.984;3.538;2023-10-19T05:06:52;5.85;;;0.50;;
47715;SDS011;33476;50.984;3.538;2023-10-19T05:09:18;7.55;;;0.40;;
47715;SDS011;33476;50.984;3.538;2023-10-19T05:11:43;9.40;;;0.45;;
47715;SDS011;33476;50.984;3.538;2023-10-19T05:14:11;5.20;;;0.50;;
47715;SDS011;33476;50.984;3.538;2023-10-19T05:16:38;6.35;;;0.60;;
47715;SDS011;33476;50.984;3.538;2023-10-19T05:19:07;3.90;;;0.28;;
47715;SDS011;33476;50.984;3.538;2023-10-19T05:21:32;3.67;;;0.52;;
47715;SDS011;33476;50.984;3.538;2023-10-19T05:23:59;6.03;;;0.90;;
47715;SDS011;33476;50.984;3.538;2023-10-19T05:26:25;8.95;;;0.60;;
47715;SDS011;33476;50.984;3.538;2023-10-19T05:28:51;7.35;;;0.60;;
47715;SDS011;33476;50.984;3.538;2023-10-19T05:31:16;6.22;;;0.60;;
47715;SDS011;33476;50.984;3.538;2023-10-19T05:33:42;4.40;;;0.30;;
47715;SDS011;33476;50.984;3.538;2023-10-19T05:36:07;7.47;;;0.63;;
47715;SDS011;33476;50.984;3.538;2023-10-19T05:38:33;8.73;;;0.52;;
47715;SDS011;33476;50.984;3.538;2023-10-19T05:40:59;10.88;;;0.57;;
47715;SDS011;33476;50.984;3.538;2023-10-19T05:43:25;4.93;;;0.45;;
47715;SDS011;33476;50.984;3.538;2023-10-19T05:45:50;5.28;;;0.75;;
47715;SDS011;33476;50.984;3.538;2023-10-19T05:48:19;7.55;;;0.60;;
47715;SDS011;33476;50.984;3.538;2023-10-19T05:50:45;8.60;;;0.55;;
47715;SDS011;33476;50.984;3.538;2023-10-19T05:53:10;3.75;;;0.40;;
47715;SDS011;33476;50.984;3.538;2023-10-19T05:55:36;11.82;;;0.88;;
47715;SDS011;33476;50.984;3.538;2023-10-19T05:58:04;5.60;;;0.50;;
47715;SDS011;33476;50.984;3.538;2023-10-19T06:00:30;6.32;;;0.50;;
47715;SDS011;33476;50.984;3.538;2023-10-19T06:02:55;12.15;;;0.45;;
47715;SDS011;33476;50.984;3.538;2023-10-19T06:05:22;10.98;;;1.08;;
47715;SDS011;33476;50.984;3.538;2023-10-19T06:07:49;5.40;;;0.52;;
47715;SDS011;33476;50.984;3.538;2023-10-19T06:10:18;9.40;;;0.65;;
47715;SDS011;33476;50.984;3.538;2023-10-19T06:12:47;7.30;;;0.60;;
47715;SDS011;33476;50.984;3.538;2023-10-19T06:15:15;10.75;;;0.80;;
47715;SDS011;33476;50.984;3.538;2023-10-19T06:17:41;12.23;;;0.80;;
47715;SDS011;33476;50.984;3.538;2023-10-19T06:20:08;7.80;;;1.08;;
47715;SDS011;33476;50.984;3.538;2023-10-19T06:22:45;10.38;;;1.15;;
47715;SDS011;33476;50.984;3.538;2023-10-19T06:25:15;13.52;;;0.90;;
47715;SDS011;33476;50.984;3.538;2023-10-19T06:27:42;9.40;;;0.80;;
47715;SDS011;33476;50.984;3.538;2023-10-19T06:30:08;7.38;;;0.70;;
47715;SDS011;33476;50.984;3.538;2023-10-19T06:32:35;8.38;;;0.80;;
47715;SDS011;33476;50.984;3.538;2023-10-19T06:35:01;5.63;;;0.80;;
47715;SDS011;33476;50.984;3.538;2023-10-19T06:37:27;9.27;;;1.52;;
47715;SDS011;33476;50.984;3.538;2023-10-19T06:39:52;7.97;;;0.65;;
47715;SDS011;33476;50.984;3.538;2023-10-19T06:42:18;7.15;;;0.93;;
47715;SDS011;33476;50.984;3.538;2023-10-19T06:44:43;7.65;;;0.50;;
47715;SDS011;33476;50.984;3.538;2023-10-19T06:47:09;5.82;;;0.50;;
47715;SDS011;33476;50.984;3.538;2023-10-19T06:49:35;7.75;;;0.80;;
47715;SDS011;33476;50.984;3.538;2023-10-19T06:52:01;12.13;;;0.68;;
47715;SDS011;33476;50.984;3.538;2023-10-19T06:54:29;4.20;;;0.80;;
47715;SDS011;33476;50.984;3.538;2023-10-19T06:56:54;7.07;;;0.50;;
47715;SDS011;33476;50.984;3.538;2023-10-19T06:59:20;5.28;;;0.50;;
47715;SDS011;33476;50.984;3.538;2023-10-19T07:01:45;11.20;;;0.50;;
47715;SDS011;33476;50.984;3.538;2023-10-19T07:04:11;4.13;;;0.52;;
47715;SDS011;33476;50.984;3.538;2023-10-19T07:06:38;10.23;;;0.70;;
47715;SDS011;33476;50.984;3.538;2023-10-19T07:09:03;15.23;;;0.90;;
47715;SDS011;33476;50.984;3.538;2023-10-19T07:11:30;6.20;;;0.55;;
47715;SDS011;33476;50.984;3.538;2023-10-19T07:13:55;6.45;;;0.70;;
47715;SDS011;33476;50.984;3.538;2023-10-19T07:16:21;7.00;;;0.60;;
47715;SDS011;33476;50.984;3.538;2023-10-19T07:18:46;6.50;;;0.52;;
47715;SDS011;33476;50.984;3.538;2023-10-19T07:21:12;7.65;;;0.43;;
47715;SDS011;33476;50.984;3.538;2023-10-19T07:23:37;9.27;;;0.73;;
47715;SDS011;33476;50.984;3.538;2023-10-19T07:26:03;7.22;;;0.50;;
47715;SDS011;33476;50.984;3.538;2023-10-19T07:28:29;7.38;;;1.38;;
47715;SDS011;33476;50.984;3.538;2023-10-19T07:30:56;10.02;;;0.88;;
47715;SDS011;33476;50.984;3.538;2023-10-19T07:33:22;10.20;;;0.82;;
47715;SDS011;33476;50.984;3.538;2023-10-19T07:35:48;9.63;;;1.08;;
47715;SDS011;33476;50.984;3.538;2023-10-19T07:38:23;10.45;;;0.52;;
47715;SDS011;33476;50.984;3.538;2023-10-19T07:40:49;8.27;;;0.55;;
47715;SDS011;33476;50.984;3.538;2023-10-19T07:43:17;10.18;;;0.73;;
47715;SDS011;33476;50.984;3.538;2023-10-19T07:45:45;7.88;;;0.77;;
47715;SDS011;33476;50.984;3.538;2023-10-19T07:48:12;7.88;;;0.60;;
47715;SDS011;33476;50.984;3.538;2023-10-19T07:50:39;11.55;;;0.93;;
47715;SDS011;33476;50.984;3.538;2023-10-19T07:53:07;8.85;;;0.88;;
47715;SDS011;33476;50.984;3.538;2023-10-19T07:55:34;6.75;;;0.80;;
47715;SDS011;33476;50.984;3.538;2023-10-19T07:58:00;12.27;;;0.68;;
47715;SDS011;33476;50.984;3.538;2023-10-19T08:00:26;10.45;;;1.08;;
47715;SDS011;33476;50.984;3.538;2023-10-19T08:02:54;5.40;;;0.93;;
47715;SDS011;33476;50.984;3.538;2023-10-19T08:05:20;11.70;;;0.85;;
47715;SDS011;33476;50.984;3.538;2023-10-19T08:07:47;6.60;;;0.75;;
47715;SDS011;33476;50.984;3.538;2023-10-19T08:10:13;9.18;;;0.80;;
47715;SDS011;33476;50.984;3.538;2023-10-19T08:12:41;10.50;;;1.00;;
47715;SDS011;33476;50.984;3.538;2023-10-19T08:15:08;14.00;;;0.88;;
47715;SDS011;33476;50.984;3.538;2023-10-19T08:17:36;9.77;;;0.70;;
47715;SDS011;33476;50.984;3.538;2023-10-19T08:20:06;10.30;;;0.70;;
47715;SDS011;33476;50.984;3.538;2023-10-19T08:22:34;7.97;;;0.60;;
47715;SDS011;33476;50.984;3.538;2023-10-19T08:25:04;9.23;;;0.75;;
47715;SDS011;33476;50.984;3.538;2023-10-19T08:27:39;6.65;;;0.77;;
47715;SDS011;33476;50.984;3.538;2023-10-19T08:30:05;7.13;;;0.80;;
47715;SDS011;33476;50.984;3.538;2023-10-19T08:32:34;8.40;;;0.82;;
47715;SDS011;33476;50.984;3.538;2023-10-19T08:35:01;8.63;;;0.82;;
47715;SDS011;33476;50.984;3.538;2023-10-19T08:37:26;11.30;;;0.68;;
47715;SDS011;33476;50.984;3.538;2023-10-19T08:39:52;6.40;;;0.43;;
47715;SDS011;33476;50.984;3.538;2023-10-19T08:42:18;6.07;;;0.82;;
47715;SDS011;33476;50.984;3.538;2023-10-19T08:44:43;12.38;;;1.08;;
47715;SDS011;33476;50.984;3.538;2023-10-19T08:47:09;6.63;;;0.90;;
47715;SDS011;33476;50.984;3.538;2023-10-19T08:49:34;9.73;;;1.00;;
47715;SDS011;33476;50.984;3.538;2023-10-19T08:52:00;10.35;;;1.13;;
47715;SDS011;33476;50.984;3.538;2023-10-19T08:54:29;7.97;;;0.95;;
47715;SDS011;33476;50.984;3.538;2023-10-19T08:56:54;13.63;;;1.20;;
47715;SDS011;33476;50.984;3.538;2023-10-19T08:59:21;8.77;;;0.65;;
47715;SDS011;33476;50.984;3.538;2023-10-19T09:01:46;7.82;;;1.00;;
47715;SDS011;33476;50.984;3.538;2023-10-19T09:04:12;10.70;;;0.95;;
47715;SDS011;33476;50.984;3.538;2023-10-19T09:06:41;9.05;;;0.68;;
47715;SDS011;33476;50.984;3.538;2023-10-19T09:09:10;12.43;;;1.13;;
47715;SDS011;33476;50.984;3.538;2023-10-19T09:11:44;8.55;;;1.13;;
47715;SDS011;33476;50.984;3.538;2023-10-19T09:14:11;11.30;;;0.70;;
47715;SDS011;33476;50.984;3.538;2023-10-19T09:16:38;7.55;;;0.70;;
47715;SDS011;33476;50.984;3.538;2023-10-19T09:19:19;8.55;;;0.60;;
47715;SDS011;33476;50.984;3.538;2023-10-19T09:21:45;7.68;;;0.77;;
47715;SDS011;33476;50.984;3.538;2023-10-19T09:24:11;9.35;;;0.57;;
47715;SDS011;33476;50.984;3.538;2023-10-19T09:26:36;10.88;;;0.95;;
47715;SDS011;33476;50.984;3.538;2023-10-19T09:29:02;11.23;;;0.88;;
47715;SDS011;33476;50.984;3.538;2023-10-19T09:31:28;9.50;;;0.63;;
47715;SDS011;33476;50.984;3.538;2023-10-19T09:33:56;11.52;;;0.40;;
47715;SDS011;33476;50.984;3.538;2023-10-19T09:36:22;9.23;;;0.93;;
47715;SDS011;33476;50.984;3.538;2023-10-19T09:38:51;11.07;;;0.97;;
47715;SDS011;33476;50.984;3.538;2023-10-19T09:41:17;6.55;;;0.80;;
47715;SDS011;33476;50.984;3.538;2023-10-19T09:43:44;12.00;;;1.50;;
47715;SDS011;33476;50.984;3.538;2023-10-19T09:46:12;11.20;;;1.02;;
47715;SDS011;33476;50.984;3.538;2023-10-19T09:48:53;7.55;;;1.13;;
47715;SDS011;33476;50.984;3.538;2023-10-19T09:51:19;5.97;;;0.63;;
47715;SDS011;33476;50.984;3.538;2023-10-19T09:54:09;11.50;;;0.85;;
47715;SDS011;33476;50.984;3.538;2023-10-19T09:56:36;6.95;;;1.05;;
47715;SDS011;33476;50.984;3.538;2023-10-19T09:59:10;9.82;;;1.02;;
47715;SDS011;33476;50.984;3.538;2023-10-19T10:02:03;8.70;;;0.70;;
47715;SDS011;33476;50.984;3.538;2023-10-19T10:04:30;7.72;;;0.88;;
47715;SDS011;33476;50.984;3.538;2023-10-19T10:06:57;9.13;;;0.80;;
47715;SDS011;33476;50.984;3.538;2023-10-19T10:09:25;7.90;;;0.88;;
47715;SDS011;33476;50.984;3.538;2023-10-19T10:11:51;11.23;;;1.05;;
47715;SDS011;33476;50.984;3.538;2023-10-19T10:14:24;12.95;;;0.88;;
47715;SDS011;33476;50.984;3.538;2023-10-19T10:17:03;12.90;;;1.13;;
47715;SDS011;33476;50.984;3.538;2023-10-19T10:19:30;8.38;;;0.70;;
47715;SDS011;33476;50.984;3.538;2023-10-19T10:24:43;9.95;;;0.93;;
47715;SDS011;33476;50.984;3.538;2023-10-19T10:27:10;10.55;;;0.70;;
47715;SDS011;33476;50.984;3.538;2023-10-19T10:29:53;9.10;;;0.65;;
47715;SDS011;33476;50.984;3.538;2023-10-19T10:32:42;9.85;;;0.93;;
47715;SDS011;33476;50.984;3.538;2023-10-19T10:35:08;7.50;;;0.60;;
47715;SDS011;33476;50.984;3.538;2023-10-19T10:37:37;9.70;;;0.98;;
47715;SDS011;33476;50.984;3.538;2023-10-19T10:40:05;5.85;;;0.77;;
47715;SDS011;33476;50.984;3.538;2023-10-19T10:42:31;10.95;;;1.10;;
47715;SDS011;33476;50.984;3.538;2023-10-19T10:44:56;7.35;;;0.73;;
47715;SDS011;33476;50.984;3.538;2023-10-19T10:47:23;9.85;;;1.42;;
47715;SDS011;33476;50.984;3.538;2023-10-19T10:49:55;11.38;;;0.80;;
47715;SDS011;33476;50.984;3.538;2023-10-19T10:52:34;10.70;;;1.38;;
47715;SDS011;33476;50.984;3.538;2023-10-19T10:55:08;9.65;;;1.13;;
47715;SDS011;33476;50.984;3.538;2023-10-19T10:57:38;7.93;;;0.73;;
47715;SDS011;33476;50.984;3.538;2023-10-19T11:00:06;11.48;;;0.80;;
47715;SDS011;33476;50.984;3.538;2023-10-19T11:02:34;12.02;;;0.82;;
47715;SDS011;33476;50.984;3.538;2023-10-19T11:05:00;13.45;;;1.15;;
47715;SDS011;33476;50.984;3.538;2023-10-19T11:07:26;9.15;;;0.80;;
47715;SDS011;33476;50.984;3.538;2023-10-19T11:09:52;12.65;;;0.98;;
47715;SDS011;33476;50.984;3.538;2023-10-19T11:12:17;9.70;;;0.77;;
47715;SDS011;33476;50.984;3.538;2023-10-19T11:14:53;7.75;;;0.85;;
47715;SDS011;33476;50.984;3.538;2023-10-19T11:17:20;7.55;;;0.57;;
47715;SDS011;33476;50.984;3.538;2023-10-19T11:19:48;9.02;;;1.00;;
47715;SDS011;33476;50.984;3.538;2023-10-19T11:22:14;8.85;;;1.00;;
47715;SDS011;33476;50.984;3.538;2023-10-19T11:24:40;5.07;;;0.90;;
47715;SDS011;33476;50.984;3.538;2023-10-19T11:27:05;6.15;;;0.60;;
47715;SDS011;33476;50.984;3.538;2023-10-19T11:29:32;10.70;;;0.82;;
47715;SDS011;33476;50.984;3.538;2023-10-19T11:32:02;4.25;;;0.65;;
47715;SDS011;33476;50.984;3.538;2023-10-19T11:34:27;7.85;;;0.98;;
47715;SDS011;33476;50.984;3.538;2023-10-19T11:36:56;7.00;;;1.10;;
47715;SDS011;33476;50.984;3.538;2023-10-19T11:39:25;5.47;;;0.50;;
47715;SDS011;33476;50.984;3.538;2023-10-19T11:41:51;3.83;;;0.50;;
47715;SDS011;33476;50.984;3.538;2023-10-19T11:44:18;7.80;;;0.60;;
47715;SDS011;33476;50.984;3.538;2023-10-19T11:46:44;7.03;;;0.60;;
47715;SDS011;33476;50.984;3.538;2023-10-19T11:49:10;4.75;;;0.40;;
47715;SDS011;33476;50.984;3.538;2023-10-19T11:51:36;8.18;;;0.65;;
47715;SDS011;33476;50.984;3.538;2023-10-19T11:54:04;7.85;;;0.40;;
47715;SDS011;33476;50.984;3.538;2023-10-19T11:56:31;5.35;;;0.82;;
47715;SDS011;33476;50.984;3.538;2023-10-19T11:58:57;3.17;;;0.52;;
47715;SDS011;33476;50.984;3.538;2023-10-19T12:01:22;3.63;;;0.30;;
47715;SDS011;33476;50.984;3.538;2023-10-19T12:03:50;5.25;;;0.40;;
47715;SDS011;33476;50.984;3.538;2023-10-19T12:06:16;2.05;;;0.40;;
47715;SDS011;33476;50.984;3.538;2023-10-19T12:08:44;4.80;;;0.20;;
47715;SDS011;33476;50.984;3.538;2023-10-19T12:11:10;3.90;;;0.57;;
47715;SDS011;33476;50.984;3.538;2023-10-19T12:13:43;4.70;;;0.30;;
47715;SDS011;33476;50.984;3.538;2023-10-19T12:16:09;2.25;;;0.20;;
47715;SDS011;33476;50.984;3.538;2023-10-19T12:18:38;4.07;;;0.30;;
47715;SDS011;33476;50.984;3.538;2023-10-19T12:21:04;4.63;;;0.43;;
47715;SDS011;33476;50.984;3.538;2023-10-19T12:23:32;2.30;;;0.30;;
47715;SDS011;33476;50.984;3.538;2023-10-19T12:25:58;4.03;;;0.47;;
47715;SDS011;33476;50.984;3.538;2023-10-19T12:28:27;4.60;;;0.30;;
47715;SDS011;33476;50.984;3.538;2023-10-19T12:30:53;6.20;;;0.47;;
47715;SDS011;33476;50.984;3.538;2023-10-19T12:33:18;3.60;;;0.30;;
47715;SDS011;33476;50.984;3.538;2023-10-19T12:35:44;3.15;;;0.47;;
47715;SDS011;33476;50.984;3.538;2023-10-19T12:38:12;3.80;;;0.50;;
47715;SDS011;33476;50.984;3.538;2023-10-19T12:40:44;4.10;;;0.40;;
47715;SDS011;33476;50.984;3.538;2023-10-19T12:43:15;3.15;;;0.20;;
47715;SDS011;33476;50.984;3.538;2023-10-19T12:45:43;6.13;;;0.60;;
47715;SDS011;33476;50.984;3.538;2023-10-19T12:48:13;1.75;;;0.30;;
47715;SDS011;33476;50.984;3.538;2023-10-19T12:50:38;3.20;;;0.30;;
47715;SDS011;33476;50.984;3.538;2023-10-19T12:53:06;4.22;;;0.20;;
47715;SDS011;33476;50.984;3.538;2023-10-19T12:55:31;3.40;;;0.30;;
47715;SDS011;33476;50.984;3.538;2023-10-19T12:57:57;1.65;;;0.15;;
47715;SDS011;33476;50.984;3.538;2023-10-19T13:00:24;2.15;;;0.25;;
47715;SDS011;33476;50.984;3.538;2023-10-19T13:02:57;2.10;;;0.37;;
47715;SDS011;33476;50.984;3.538;2023-10-19T13:05:31;3.45;;;0.40;;
47715;SDS011;33476;50.984;3.538;2023-10-19T13:08:01;2.30;;;0.20;;
47715;SDS011;33476;50.984;3.538;2023-10-19T13:10:28;3.00;;;0.20;;
47715;SDS011;33476;50.984;3.538;2023-10-19T13:12:57;2.40;;;0.10;;
47715;SDS011;33476;50.984;3.538;2023-10-19T13:15:33;2.00;;;0.17;;
47715;SDS011;33476;50.984;3.538;2023-10-19T13:18:00;3.50;;;0.20;;
47715;SDS011;33476;50.984;3.538;2023-10-19T13:20:30;3.28;;;0.30;;
47715;SDS011;33476;50.984;3.538;2023-10-19T13:23:00;1.75;;;0.15;;
47715;SDS011;33476;50.984;3.538;2023-10-19T13:25:26;1.85;;;0.20;;
47715;SDS011;33476;50.984;3.538;2023-10-19T13:28:05;2.08;;;0.30;;
47715;SDS011;33476;50.984;3.538;2023-10-19T13:30:35;7.75;;;0.38;;
47715;SDS011;33476;50.984;3.538;2023-10-19T13:33:01;1.60;;;0.20;;
47715;SDS011;33476;50.984;3.538;2023-10-19T13:35:29;2.58;;;0.38;;
47715;SDS011;33476;50.984;3.538;2023-10-19T13:37:55;4.10;;;0.60;;
47715;SDS011;33476;50.984;3.538;2023-10-19T13:40:21;1.60;;;0.30;;
47715;SDS011;33476;50.984;3.538;2023-10-19T13:42:48;1.95;;;0.20;;
47715;SDS011;33476;50.984;3.538;2023-10-19T13:45:14;4.20;;;0.68;;
47715;SDS011;33476;50.984;3.538;2023-10-19T13:47:39;3.22;;;0.30;;
47715;SDS011;33476;50.984;3.538;2023-10-19T13:50:05;4.10;;;0.30;;
47715;SDS011;33476;50.984;3.538;2023-10-19T13:52:32;2.13;;;0.20;;
47715;SDS011;33476;50.984;3.538;2023-10-19T13:54:58;4.05;;;0.60;;
47715;SDS011;33476;50.984;3.538;2023-10-19T13:57:23;4.15;;;0.40;;
47715;SDS011;33476;50.984;3.538;2023-10-19T13:59:48;2.40;;;0.30;;
47715;SDS011;33476;50.984;3.538;2023-10-19T14:02:14;3.00;;;0.30;;
47715;SDS011;33476;50.984;3.538;2023-10-19T14:04:39;2.75;;;0.30;;
47715;SDS011;33476;50.984;3.538;2023-10-19T14:07:05;2.28;;;0.50;;
47715;SDS011;33476;50.984;3.538;2023-10-19T14:09:30;4.35;;;0.30;;
47715;SDS011;33476;50.984;3.538;2023-10-19T14:11:56;2.60;;;0.30;;
47715;SDS011;33476;50.984;3.538;2023-10-19T14:14:22;2.00;;;0.20;;
47715;SDS011;33476;50.984;3.538;2023-10-19T14:16:48;2.42;;;0.30;;
47715;SDS011;33476;50.984;3.538;2023-10-19T14:19:15;3.55;;;0.22;;
47715;SDS011;33476;50.984;3.538;2023-10-19T14:21:42;3.95;;;0.40;;
47715;SDS011;33476;50.984;3.538;2023-10-19T14:24:11;3.13;;;0.20;;
47715;SDS011;33476;50.984;3.538;2023-10-19T14:26:36;5.00;;;0.38;;
47715;SDS011;33476;50.984;3.538;2023-10-19T14:29:03;4.50;;;0.40;;
47715;SDS011;33476;50.984;3.538;2023-10-19T14:31:29;3.97;;;0.45;;
47715;SDS011;33476;50.984;3.538;2023-10-19T14:33:54;4.13;;;0.20;;
47715;SDS011;33476;50.984;3.538;2023-10-19T14:36:19;3.28;;;0.30;;
47715;SDS011;33476;50.984;3.538;2023-10-19T14:38:45;1.90;;;0.20;;
47715;SDS011;33476;50.984;3.538;2023-10-19T14:41:11;2.65;;;0.13;;
47715;SDS011;33476;50.984;3.538;2023-10-19T14:43:36;2.50;;;0.20;;
47715;SDS011;33476;50.984;3.538;2023-10-19T14:46:04;2.08;;;0.10;;
47715;SDS011;33476;50.984;3.538;2023-10-19T14:48:31;3.88;;;0.28;;
47715;SDS011;33476;50.984;3.538;2023-10-19T14:50:57;4.68;;;0.50;;
47715;SDS011;33476;50.984;3.538;2023-10-19T14:53:22;2.20;;;0.30;;
47715;SDS011;33476;50.984;3.538;2023-10-19T14:55:49;5.53;;;0.22;;
47715;SDS011;33476;50.984;3.538;2023-10-19T14:58:15;3.33;;;0.20;;
47715;SDS011;33476;50.984;3.538;2023-10-19T15:00:41;2.17;;;0.20;;
47715;SDS011;33476;50.984;3.538;2023-10-19T15:03:11;3.70;;;0.30;;
47715;SDS011;33476;50.984;3.538;2023-10-19T15:05:38;2.50;;;0.20;;